AirNav  
 
 1173 users online  

66NJ Forked River Heliport
Forked River, New Jersey, USA

GOING TO FORKED RIVER?


FAA INFORMATION EFFECTIVE 01 FEBRUARY 2018

Location

FAA Identifier: 66NJ
Lat/Long: 39-50-23.4280N / 074-10-39.5010W
39-50.390467N / 074-10.658350W
39.8398411 / -74.1776392
(estimated)
Elevation: 13 ft. / 4 m (estimated)
Variation: 12W (1980)
From city: 1 mile E of FORKED RIVER, NJ
Time zone: UTC -5 (UTC -4 during Daylight Saving Time)
Zip code: 08731

Heliport Operations

Heliport use: Private use. Permission required prior to landing
Activation date: 10/1986
Control tower: no
ARTCC: NEW YORK CENTER
FSS: MILLVILLE FLIGHT SERVICE STATION
Attendance: IREG
Segmented circle: no

Heliport Communications

WX AWOS-3PT at MJX (7 nm NW): 119.875 (732-797-2542)
WX AWOS-AV at N12 (14 nm N): 122.8 (732-363-6471)

Nearby radio navigation aids

VOR radial/distance  VOR name  Freq  Var
CYNr093/11.8COYLE VORTAC113.4010W
GXUr130/21.8MC GUIRE VORTAC110.6012W
RBVr156/26.2ROBBINSVILLE VORTAC113.8010W
COLr193/28.3COLTS NECK VOR/DME115.4011W
ACYr049/29.5ATLANTIC CITY VORTAC108.6010W

 
NDB name  Hdg/Dist  Freq  Var  ID
LAKEHURST160/14.339611WNEL -. . .-..

Heliport Services

Runway Information

Helipad H1

Dimensions: 150 x 150 ft. / 46 x 46 m
Surface: turf
Traffic pattern: leftleft

Heliport Ownership and Management from official FAA records

Ownership: Publicly-owned
Owner: STATE OF NEW JERSEY
Phone 609-292-2977
Manager: ST FIREWARDEN
N.J. FOREST FIRE SERVICE
TRENTON, NJ 08625
Phone 609-984-3853

Additional Remarks

PPR - EMS, LAW ENFORCEMENT, FIRE AND FORESTY USE ONLY.

Instrument Procedures

There are no published instrument procedures at 66NJ.

Some nearby airports with instrument procedures:

KMJX - Ocean County Airport (7 nm NW)
31E - Eagles Nest Airport (12 nm SW)
N12 - Lakewood Airport (14 nm N)
KNEL - Lakehurst Maxfield Field Airport (14 nm NW)
KBLM - Monmouth Executive Airport (21 nm N)
 
Loc | Ops | Rwys | IFR | FBO | Links
Com | Nav | Svcs | Stats | Notes

AirNav Hotels Sweepstakes
 
Area around 66NJ (Forked River Heliport)
 
Road maps at: MapQuest Bing Google
 
Aerial photo
No photo
 
Sectional chart

 
Airport distance calculator
Flying to Forked River Heliport? Find the distance to fly.

From to 66NJ

Sunrise and sunset
Times for 25-Feb-2018
 Local
(UTC-5)
 Zulu
(UTC)
Morning civil twilight06:1011:10
Sunrise06:3711:37
Sunset17:4322:43
Evening civil twilight18:1023:10

Current date and time
Zulu (UTC)  25-Feb-2018 22:27:25
Local (UTC-5)  25-Feb-2018 17:27:25
 
METAR
KMJX 
7nm NW 
AWOS-3 119.875 732-244-4450
252056Z AUTO 31006KT 10SM OVC004 08/07 A2999 RMK AO2 SLP160 6//// T00780072 53028 PNO $
KNEL 
13nm NW 
252200Z AUTO VRB03KT 3/4SM OVC004 08/08 A2998 RMK AO2 SFC VIS 7 SLP150 T00780078 PNO $
KBLM 
20nm N 
AWOS-3 121.625 732-938-3330
252156Z AUTO 34006KT 6SM BR OVC003 06/06 A2999 RMK AO2 SLP159 T00610056
TAF
KWRI 
21nm NW 
252017Z 2520/2624 03006KT 9999 OVC004 510202 QNH2991INS BECMG 2523/2601 VRB06KT 9999 BKN010 OVC100 QNH2993INS BECMG 2601/2603 31006KT 9999 FEW012 BKN150 QNH2995INS BECMG 2617/2618 33006KT 9999 SCT150 QNH3009INS TX11/2521Z TN05/2610Z
NOTAMs
Click for the latest NOTAMs
NOTAMs are issued by the DoD/FAA and will open in a separate window not controlled by AirNav.

 

 
 

Would you like to see your business listed on this page?

 If your business provides an interesting product or service to pilots, flight crews, aircraft, or users of the Forked River Heliport, you should consider listing it here.  To start the listing process, click on the button below
 
Add a business
 

Other Pages about Forked River Heliport

Update a link
 
Copyright © AirNav, LLC. All rights reserved. Privacy Policy  Contact